sensor_id;sensor_type;location;lat;lon;timestamp;P1;durP1;ratioP1;P2;durP2;ratioP2
9716;SDS011;4897;43.570;27.832;2023-05-19T00:01:17;17.00;;;9.18;;
9716;SDS011;4897;43.570;27.832;2023-05-19T00:03:49;18.05;;;8.88;;
9716;SDS011;4897;43.570;27.832;2023-05-19T00:06:20;16.08;;;9.70;;
9716;SDS011;4897;43.570;27.832;2023-05-19T00:08:48;17.50;;;9.18;;
9716;SDS011;4897;43.570;27.832;2023-05-19T00:11:20;15.48;;;9.10;;
9716;SDS011;4897;43.570;27.832;2023-05-19T00:13:48;15.82;;;9.13;;
9716;SDS011;4897;43.570;27.832;2023-05-19T00:16:15;17.25;;;9.18;;
9716;SDS011;4897;43.570;27.832;2023-05-19T00:18:43;20.48;;;10.07;;
9716;SDS011;4897;43.570;27.832;2023-05-19T00:21:12;17.35;;;9.23;;
9716;SDS011;4897;43.570;27.832;2023-05-19T00:23:39;16.60;;;9.38;;
9716;SDS011;4897;43.570;27.832;2023-05-19T00:26:06;21.58;;;9.65;;
9716;SDS011;4897;43.570;27.832;2023-05-19T00:28:33;20.08;;;9.18;;
9716;SDS011;4897;43.570;27.832;2023-05-19T00:31:00;16.38;;;9.25;;
9716;SDS011;4897;43.570;27.832;2023-05-19T00:33:27;17.88;;;9.20;;
9716;SDS011;4897;43.570;27.832;2023-05-19T00:35:54;19.05;;;9.80;;
9716;SDS011;4897;43.570;27.832;2023-05-19T00:38:22;16.02;;;9.65;;
9716;SDS011;4897;43.570;27.832;2023-05-19T00:40:49;17.42;;;9.60;;
9716;SDS011;4897;43.570;27.832;2023-05-19T00:43:16;17.40;;;9.15;;
9716;SDS011;4897;43.570;27.832;2023-05-19T00:45:43;18.85;;;9.68;;
9716;SDS011;4897;43.570;27.832;2023-05-19T00:48:11;17.77;;;9.40;;
9716;SDS011;4897;43.570;27.832;2023-05-19T00:50:40;17.40;;;10.13;;
9716;SDS011;4897;43.570;27.832;2023-05-19T00:53:10;21.55;;;9.82;;
9716;SDS011;4897;43.570;27.832;2023-05-19T00:55:40;18.50;;;9.70;;
9716;SDS011;4897;43.570;27.832;2023-05-19T00:58:08;19.05;;;10.05;;
9716;SDS011;4897;43.570;27.832;2023-05-19T01:00:36;18.80;;;10.75;;
9716;SDS011;4897;43.570;27.832;2023-05-19T01:03:04;15.07;;;9.73;;
9716;SDS011;4897;43.570;27.832;2023-05-19T01:05:35;16.52;;;9.80;;
9716;SDS011;4897;43.570;27.832;2023-05-19T01:08:05;18.00;;;9.93;;
9716;SDS011;4897;43.570;27.832;2023-05-19T01:10:32;18.58;;;10.40;;
9716;SDS011;4897;43.570;27.832;2023-05-19T01:13:01;22.13;;;10.13;;
9716;SDS011;4897;43.570;27.832;2023-05-19T01:15:30;18.35;;;10.40;;
9716;SDS011;4897;43.570;27.832;2023-05-19T01:18:04;20.38;;;10.20;;
9716;SDS011;4897;43.570;27.832;2023-05-19T01:20:37;18.05;;;10.40;;
9716;SDS011;4897;43.570;27.832;2023-05-19T01:23:19;15.75;;;10.00;;
9716;SDS011;4897;43.570;27.832;2023-05-19T01:26:15;15.50;;;10.63;;
9716;SDS011;4897;43.570;27.832;2023-05-19T01:29:15;16.48;;;10.73;;
9716;SDS011;4897;43.570;27.832;2023-05-19T01:32:03;14.77;;;9.73;;
9716;SDS011;4897;43.570;27.832;2023-05-19T01:34:33;18.92;;;9.82;;
9716;SDS011;4897;43.570;27.832;2023-05-19T01:37:07;15.55;;;9.63;;
9716;SDS011;4897;43.570;27.832;2023-05-19T01:39:38;15.05;;;9.90;;
9716;SDS011;4897;43.570;27.832;2023-05-19T01:42:05;14.32;;;9.55;;
9716;SDS011;4897;43.570;27.832;2023-05-19T01:44:33;16.08;;;10.10;;
9716;SDS011;4897;43.570;27.832;2023-05-19T01:47:00;15.45;;;9.73;;
9716;SDS011;4897;43.570;27.832;2023-05-19T01:49:29;18.23;;;9.45;;
9716;SDS011;4897;43.570;27.832;2023-05-19T01:51:56;16.00;;;10.15;;
9716;SDS011;4897;43.570;27.832;2023-05-19T01:54:23;19.52;;;9.90;;
9716;SDS011;4897;43.570;27.832;2023-05-19T01:56:51;20.20;;;9.80;;
9716;SDS011;4897;43.570;27.832;2023-05-19T01:59:29;16.45;;;10.00;;
9716;SDS011;4897;43.570;27.832;2023-05-19T02:02:04;15.90;;;9.60;;
9716;SDS011;4897;43.570;27.832;2023-05-19T02:04:39;18.20;;;10.02;;
9716;SDS011;4897;43.570;27.832;2023-05-19T02:07:11;16.40;;;10.05;;
9716;SDS011;4897;43.570;27.832;2023-05-19T02:09:43;18.25;;;9.40;;
9716;SDS011;4897;43.570;27.832;2023-05-19T02:12:18;16.33;;;9.70;;
9716;SDS011;4897;43.570;27.832;2023-05-19T02:14:53;19.10;;;8.93;;
9716;SDS011;4897;43.570;27.832;2023-05-19T02:17:28;11.80;;;9.00;;
9716;SDS011;4897;43.570;27.832;2023-05-19T02:19:59;17.05;;;9.55;;
9716;SDS011;4897;43.570;27.832;2023-05-19T02:22:26;17.45;;;9.70;;
9716;SDS011;4897;43.570;27.832;2023-05-19T02:24:53;14.73;;;9.38;;
9716;SDS011;4897;43.570;27.832;2023-05-19T02:27:21;28.30;;;9.80;;
9716;SDS011;4897;43.570;27.832;2023-05-19T02:29:48;18.08;;;9.95;;
9716;SDS011;4897;43.570;27.832;2023-05-19T02:32:16;14.38;;;9.30;;
9716;SDS011;4897;43.570;27.832;2023-05-19T02:34:43;15.25;;;10.02;;
9716;SDS011;4897;43.570;27.832;2023-05-19T02:37:11;16.15;;;10.55;;
9716;SDS011;4897;43.570;27.832;2023-05-19T02:39:38;14.45;;;10.95;;
9716;SDS011;4897;43.570;27.832;2023-05-19T02:42:05;14.98;;;9.82;;
9716;SDS011;4897;43.570;27.832;2023-05-19T02:44:32;14.90;;;10.02;;
9716;SDS011;4897;43.570;27.832;2023-05-19T02:47:01;15.68;;;10.60;;
9716;SDS011;4897;43.570;27.832;2023-05-19T02:49:28;21.42;;;10.45;;
9716;SDS011;4897;43.570;27.832;2023-05-19T02:51:59;12.75;;;9.15;;
9716;SDS011;4897;43.570;27.832;2023-05-19T02:54:28;15.50;;;9.98;;
9716;SDS011;4897;43.570;27.832;2023-05-19T02:57:01;16.98;;;10.10;;
9716;SDS011;4897;43.570;27.832;2023-05-19T02:59:28;13.90;;;9.52;;
9716;SDS011;4897;43.570;27.832;2023-05-19T03:02:00;15.52;;;9.55;;
9716;SDS011;4897;43.570;27.832;2023-05-19T03:04:27;15.82;;;9.88;;
9716;SDS011;4897;43.570;27.832;2023-05-19T03:06:55;14.88;;;9.63;;
9716;SDS011;4897;43.570;27.832;2023-05-19T03:09:22;15.20;;;10.18;;
9716;SDS011;4897;43.570;27.832;2023-05-19T03:11:52;13.27;;;9.43;;
9716;SDS011;4897;43.570;27.832;2023-05-19T03:14:19;15.98;;;9.95;;
9716;SDS011;4897;43.570;27.832;2023-05-19T03:16:47;15.63;;;8.77;;
9716;SDS011;4897;43.570;27.832;2023-05-19T03:19:14;20.00;;;8.73;;
9716;SDS011;4897;43.570;27.832;2023-05-19T03:21:42;12.45;;;9.25;;
9716;SDS011;4897;43.570;27.832;2023-05-19T03:24:12;14.15;;;9.60;;
9716;SDS011;4897;43.570;27.832;2023-05-19T03:26:39;28.92;;;9.98;;
9716;SDS011;4897;43.570;27.832;2023-05-19T03:29:07;19.13;;;9.23;;
9716;SDS011;4897;43.570;27.832;2023-05-19T03:31:34;14.15;;;8.98;;
9716;SDS011;4897;43.570;27.832;2023-05-19T03:34:01;15.13;;;9.60;;
9716;SDS011;4897;43.570;27.832;2023-05-19T03:36:28;15.48;;;9.00;;
9716;SDS011;4897;43.570;27.832;2023-05-19T03:38:57;16.13;;;9.10;;
9716;SDS011;4897;43.570;27.832;2023-05-19T03:41:26;12.07;;;9.10;;
9716;SDS011;4897;43.570;27.832;2023-05-19T03:43:53;14.80;;;9.02;;
9716;SDS011;4897;43.570;27.832;2023-05-19T03:46:22;13.27;;;9.23;;
9716;SDS011;4897;43.570;27.832;2023-05-19T03:48:48;11.75;;;8.85;;
9716;SDS011;4897;43.570;27.832;2023-05-19T03:51:16;21.05;;;9.65;;
9716;SDS011;4897;43.570;27.832;2023-05-19T03:53:42;13.50;;;9.20;;
9716;SDS011;4897;43.570;27.832;2023-05-19T03:56:10;16.50;;;9.40;;
9716;SDS011;4897;43.570;27.832;2023-05-19T03:58:37;13.25;;;8.95;;
9716;SDS011;4897;43.570;27.832;2023-05-19T04:01:05;13.20;;;8.55;;
9716;SDS011;4897;43.570;27.832;2023-05-19T04:03:33;13.02;;;9.02;;
9716;SDS011;4897;43.570;27.832;2023-05-19T04:06:00;17.58;;;9.43;;
9716;SDS011;4897;43.570;27.832;2023-05-19T04:08:27;15.23;;;9.77;;
9716;SDS011;4897;43.570;27.832;2023-05-19T04:10:56;15.63;;;8.85;;
9716;SDS011;4897;43.570;27.832;2023-05-19T04:13:23;13.88;;;8.73;;
9716;SDS011;4897;43.570;27.832;2023-05-19T04:15:50;13.73;;;8.65;;
9716;SDS011;4897;43.570;27.832;2023-05-19T04:18:17;16.88;;;9.32;;
9716;SDS011;4897;43.570;27.832;2023-05-19T04:20:45;18.00;;;9.63;;
9716;SDS011;4897;43.570;27.832;2023-05-19T04:23:13;13.07;;;9.30;;
9716;SDS011;4897;43.570;27.832;2023-05-19T04:25:39;17.70;;;9.50;;
9716;SDS011;4897;43.570;27.832;2023-05-19T04:28:07;19.52;;;9.75;;
9716;SDS011;4897;43.570;27.832;2023-05-19T04:30:33;15.27;;;9.35;;
9716;SDS011;4897;43.570;27.832;2023-05-19T04:33:01;13.50;;;8.93;;
9716;SDS011;4897;43.570;27.832;2023-05-19T04:35:28;18.85;;;9.38;;
9716;SDS011;4897;43.570;27.832;2023-05-19T04:37:57;12.95;;;9.40;;
9716;SDS011;4897;43.570;27.832;2023-05-19T04:40:24;16.40;;;9.27;;
9716;SDS011;4897;43.570;27.832;2023-05-19T04:42:51;14.73;;;9.45;;
9716;SDS011;4897;43.570;27.832;2023-05-19T04:45:18;20.08;;;9.13;;
9716;SDS011;4897;43.570;27.832;2023-05-19T04:47:48;17.58;;;9.60;;
9716;SDS011;4897;43.570;27.832;2023-05-19T04:50:16;14.02;;;10.10;;
9716;SDS011;4897;43.570;27.832;2023-05-19T04:52:43;12.55;;;8.73;;
9716;SDS011;4897;43.570;27.832;2023-05-19T04:55:12;18.25;;;9.65;;
9716;SDS011;4897;43.570;27.832;2023-05-19T04:57:44;15.95;;;9.65;;
9716;SDS011;4897;43.570;27.832;2023-05-19T05:00:11;15.73;;;9.00;;
9716;SDS011;4897;43.570;27.832;2023-05-19T05:02:39;14.10;;;9.18;;
9716;SDS011;4897;43.570;27.832;2023-05-19T05:05:07;12.60;;;8.43;;
9716;SDS011;4897;43.570;27.832;2023-05-19T05:07:34;13.68;;;8.30;;
9716;SDS011;4897;43.570;27.832;2023-05-19T05:10:01;11.27;;;8.07;;
9716;SDS011;4897;43.570;27.832;2023-05-19T05:12:30;12.40;;;8.75;;
9716;SDS011;4897;43.570;27.832;2023-05-19T05:14:58;14.25;;;8.80;;
9716;SDS011;4897;43.570;27.832;2023-05-19T05:17:25;11.90;;;8.48;;
9716;SDS011;4897;43.570;27.832;2023-05-19T05:19:53;11.55;;;8.60;;
9716;SDS011;4897;43.570;27.832;2023-05-19T05:22:22;12.18;;;8.18;;
9716;SDS011;4897;43.570;27.832;2023-05-19T05:24:49;13.15;;;8.23;;
9716;SDS011;4897;43.570;27.832;2023-05-19T05:27:17;13.70;;;8.40;;
9716;SDS011;4897;43.570;27.832;2023-05-19T05:29:45;12.02;;;8.15;;
9716;SDS011;4897;43.570;27.832;2023-05-19T05:32:12;9.93;;;7.47;;
9716;SDS011;4897;43.570;27.832;2023-05-19T05:34:41;13.48;;;7.95;;
9716;SDS011;4897;43.570;27.832;2023-05-19T05:37:08;9.93;;;7.63;;
9716;SDS011;4897;43.570;27.832;2023-05-19T05:39:35;11.93;;;7.30;;
9716;SDS011;4897;43.570;27.832;2023-05-19T05:42:05;11.50;;;7.07;;
9716;SDS011;4897;43.570;27.832;2023-05-19T05:44:36;10.82;;;8.20;;
9716;SDS011;4897;43.570;27.832;2023-05-19T05:47:05;11.82;;;7.78;;
9716;SDS011;4897;43.570;27.832;2023-05-19T05:49:36;12.82;;;7.55;;
9716;SDS011;4897;43.570;27.832;2023-05-19T05:52:04;15.90;;;7.13;;
9716;SDS011;4897;43.570;27.832;2023-05-19T05:54:33;19.85;;;7.57;;
9716;SDS011;4897;43.570;27.832;2023-05-19T05:57:01;13.32;;;7.55;;
9716;SDS011;4897;43.570;27.832;2023-05-19T05:59:28;8.27;;;6.38;;
9716;SDS011;4897;43.570;27.832;2023-05-19T06:01:55;9.15;;;6.20;;
9716;SDS011;4897;43.570;27.832;2023-05-19T06:04:23;11.70;;;6.97;;
9716;SDS011;4897;43.570;27.832;2023-05-19T06:06:51;10.35;;;6.43;;
9716;SDS011;4897;43.570;27.832;2023-05-19T06:09:25;9.43;;;6.10;;
9716;SDS011;4897;43.570;27.832;2023-05-19T06:11:52;13.43;;;6.80;;
9716;SDS011;4897;43.570;27.832;2023-05-19T06:14:19;11.18;;;6.38;;
9716;SDS011;4897;43.570;27.832;2023-05-19T06:16:46;7.00;;;5.57;;
9716;SDS011;4897;43.570;27.832;2023-05-19T06:19:16;10.15;;;6.35;;
9716;SDS011;4897;43.570;27.832;2023-05-19T06:21:50;14.98;;;6.57;;
9716;SDS011;4897;43.570;27.832;2023-05-19T06:24:17;12.82;;;6.75;;
9716;SDS011;4897;43.570;27.832;2023-05-19T06:26:44;10.15;;;6.57;;
9716;SDS011;4897;43.570;27.832;2023-05-19T06:29:11;11.32;;;6.10;;
9716;SDS011;4897;43.570;27.832;2023-05-19T06:31:41;8.40;;;6.15;;
9716;SDS011;4897;43.570;27.832;2023-05-19T06:34:08;7.97;;;6.15;;
9716;SDS011;4897;43.570;27.832;2023-05-19T06:36:36;10.27;;;6.25;;
9716;SDS011;4897;43.570;27.832;2023-05-19T06:39:08;15.85;;;6.30;;
9716;SDS011;4897;43.570;27.832;2023-05-19T06:41:36;10.73;;;6.05;;
9716;SDS011;4897;43.570;27.832;2023-05-19T06:44:05;16.25;;;6.47;;
9716;SDS011;4897;43.570;27.832;2023-05-19T06:46:34;11.43;;;6.53;;
9716;SDS011;4897;43.570;27.832;2023-05-19T06:49:00;9.60;;;6.85;;
9716;SDS011;4897;43.570;27.832;2023-05-19T06:51:27;8.95;;;6.57;;
9716;SDS011;4897;43.570;27.832;2023-05-19T06:53:55;11.90;;;6.82;;
9716;SDS011;4897;43.570;27.832;2023-05-19T06:56:23;12.40;;;7.13;;
9716;SDS011;4897;43.570;27.832;2023-05-19T06:58:50;10.95;;;6.22;;
9716;SDS011;4897;43.570;27.832;2023-05-19T07:01:17;17.52;;;6.32;;
9716;SDS011;4897;43.570;27.832;2023-05-19T07:03:44;18.67;;;7.10;;
9716;SDS011;4897;43.570;27.832;2023-05-19T07:06:11;15.25;;;6.78;;
9716;SDS011;4897;43.570;27.832;2023-05-19T07:08:38;11.20;;;5.88;;
9716;SDS011;4897;43.570;27.832;2023-05-19T07:11:05;13.35;;;6.70;;
9716;SDS011;4897;43.570;27.832;2023-05-19T07:13:33;11.07;;;6.63;;
9716;SDS011;4897;43.570;27.832;2023-05-19T07:16:00;14.20;;;6.55;;
9716;SDS011;4897;43.570;27.832;2023-05-19T07:18:27;13.65;;;6.97;;
9716;SDS011;4897;43.570;27.832;2023-05-19T07:20:55;8.45;;;6.60;;
9716;SDS011;4897;43.570;27.832;2023-05-19T07:23:23;11.98;;;6.63;;
9716;SDS011;4897;43.570;27.832;2023-05-19T07:25:53;14.30;;;6.50;;
9716;SDS011;4897;43.570;27.832;2023-05-19T07:28:21;10.32;;;6.50;;
9716;SDS011;4897;43.570;27.832;2023-05-19T07:30:49;10.60;;;6.50;;
9716;SDS011;4897;43.570;27.832;2023-05-19T07:33:19;10.68;;;6.47;;
9716;SDS011;4897;43.570;27.832;2023-05-19T07:35:46;19.10;;;7.38;;
9716;SDS011;4897;43.570;27.832;2023-05-19T07:38:13;12.90;;;6.55;;
9716;SDS011;4897;43.570;27.832;2023-05-19T07:40:40;11.15;;;6.32;;
9716;SDS011;4897;43.570;27.832;2023-05-19T07:43:07;10.63;;;6.38;;
9716;SDS011;4897;43.570;27.832;2023-05-19T07:45:35;8.52;;;6.15;;
9716;SDS011;4897;43.570;27.832;2023-05-19T07:48:04;9.23;;;6.03;;
9716;SDS011;4897;43.570;27.832;2023-05-19T07:50:31;13.75;;;6.80;;
9716;SDS011;4897;43.570;27.832;2023-05-19T07:53:00;10.60;;;7.13;;
9716;SDS011;4897;43.570;27.832;2023-05-19T07:55:27;11.43;;;7.10;;
9716;SDS011;4897;43.570;27.832;2023-05-19T07:57:54;10.55;;;7.40;;
9716;SDS011;4897;43.570;27.832;2023-05-19T08:00:21;10.43;;;6.97;;
9716;SDS011;4897;43.570;27.832;2023-05-19T08:02:48;12.75;;;7.47;;
9716;SDS011;4897;43.570;27.832;2023-05-19T08:05:19;10.70;;;7.55;;
9716;SDS011;4897;43.570;27.832;2023-05-19T08:07:46;11.02;;;7.43;;
9716;SDS011;4897;43.570;27.832;2023-05-19T08:10:13;8.60;;;6.55;;
9716;SDS011;4897;43.570;27.832;2023-05-19T08:12:40;11.27;;;7.55;;
9716;SDS011;4897;43.570;27.832;2023-05-19T08:15:08;14.82;;;7.25;;
9716;SDS011;4897;43.570;27.832;2023-05-19T08:17:35;9.00;;;7.40;;
9716;SDS011;4897;43.570;27.832;2023-05-19T08:20:03;14.50;;;7.18;;
9716;SDS011;4897;43.570;27.832;2023-05-19T08:22:35;11.80;;;6.90;;
9716;SDS011;4897;43.570;27.832;2023-05-19T08:25:02;14.38;;;7.20;;
9716;SDS011;4897;43.570;27.832;2023-05-19T08:27:30;19.58;;;7.50;;
9716;SDS011;4897;43.570;27.832;2023-05-19T08:29:57;11.13;;;7.55;;
9716;SDS011;4897;43.570;27.832;2023-05-19T08:32:24;12.45;;;7.55;;
9716;SDS011;4897;43.570;27.832;2023-05-19T08:34:51;13.27;;;8.07;;
9716;SDS011;4897;43.570;27.832;2023-05-19T08:37:18;24.15;;;8.52;;
9716;SDS011;4897;43.570;27.832;2023-05-19T08:39:46;21.92;;;8.38;;
9716;SDS011;4897;43.570;27.832;2023-05-19T08:42:13;11.52;;;7.50;;
9716;SDS011;4897;43.570;27.832;2023-05-19T08:44:40;19.75;;;7.32;;
9716;SDS011;4897;43.570;27.832;2023-05-19T08:47:08;10.43;;;7.15;;
9716;SDS011;4897;43.570;27.832;2023-05-19T08:49:41;16.48;;;8.38;;
9716;SDS011;4897;43.570;27.832;2023-05-19T08:52:13;15.77;;;8.07;;
9716;SDS011;4897;43.570;27.832;2023-05-19T08:54:51;21.70;;;7.82;;
9716;SDS011;4897;43.570;27.832;2023-05-19T08:57:22;12.38;;;8.20;;
9716;SDS011;4897;43.570;27.832;2023-05-19T08:59:53;15.52;;;8.45;;
9716;SDS011;4897;43.570;27.832;2023-05-19T09:02:21;15.38;;;7.78;;
9716;SDS011;4897;43.570;27.832;2023-05-19T09:04:49;16.55;;;7.95;;
9716;SDS011;4897;43.570;27.832;2023-05-19T09:07:16;9.95;;;7.57;;
9716;SDS011;4897;43.570;27.832;2023-05-19T09:09:45;12.60;;;7.65;;
9716;SDS011;4897;43.570;27.832;2023-05-19T09:12:13;17.90;;;8.13;;
9716;SDS011;4897;43.570;27.832;2023-05-19T09:14:40;19.67;;;8.02;;
9716;SDS011;4897;43.570;27.832;2023-05-19T09:17:07;10.93;;;7.07;;
9716;SDS011;4897;43.570;27.832;2023-05-19T09:19:36;18.15;;;7.30;;
9716;SDS011;4897;43.570;27.832;2023-05-19T09:22:08;9.45;;;6.68;;
9716;SDS011;4897;43.570;27.832;2023-05-19T09:24:35;9.63;;;6.35;;
9716;SDS011;4897;43.570;27.832;2023-05-19T09:27:04;10.82;;;6.40;;
9716;SDS011;4897;43.570;27.832;2023-05-19T09:29:32;11.65;;;6.72;;
9716;SDS011;4897;43.570;27.832;2023-05-19T09:31:59;8.73;;;7.00;;
9716;SDS011;4897;43.570;27.832;2023-05-19T09:34:29;16.58;;;6.00;;
9716;SDS011;4897;43.570;27.832;2023-05-19T09:36:56;20.33;;;6.75;;
9716;SDS011;4897;43.570;27.832;2023-05-19T09:39:24;8.88;;;7.15;;
9716;SDS011;4897;43.570;27.832;2023-05-19T09:41:53;14.45;;;6.70;;
9716;SDS011;4897;43.570;27.832;2023-05-19T09:44:22;13.25;;;6.00;;
9716;SDS011;4897;43.570;27.832;2023-05-19T09:46:55;17.25;;;6.90;;
9716;SDS011;4897;43.570;27.832;2023-05-19T09:49:22;11.68;;;6.03;;
9716;SDS011;4897;43.570;27.832;2023-05-19T09:51:53;11.00;;;6.57;;
9716;SDS011;4897;43.570;27.832;2023-05-19T09:54:21;13.65;;;6.65;;
9716;SDS011;4897;43.570;27.832;2023-05-19T09:56:55;12.32;;;7.88;;
9716;SDS011;4897;43.570;27.832;2023-05-19T09:59:24;7.97;;;6.45;;
9716;SDS011;4897;43.570;27.832;2023-05-19T10:01:53;10.75;;;6.05;;
9716;SDS011;4897;43.570;27.832;2023-05-19T10:04:22;13.55;;;6.25;;
9716;SDS011;4897;43.570;27.832;2023-05-19T10:06:50;17.85;;;5.65;;
9716;SDS011;4897;43.570;27.832;2023-05-19T10:09:19;14.25;;;5.88;;
9716;SDS011;4897;43.570;27.832;2023-05-19T10:11:50;8.93;;;5.25;;
9716;SDS011;4897;43.570;27.832;2023-05-19T10:14:18;10.68;;;5.38;;
9716;SDS011;4897;43.570;27.832;2023-05-19T10:16:48;8.50;;;5.30;;
9716;SDS011;4897;43.570;27.832;2023-05-19T10:19:19;6.70;;;4.82;;
9716;SDS011;4897;43.570;27.832;2023-05-19T10:21:47;7.35;;;5.45;;
9716;SDS011;4897;43.570;27.832;2023-05-19T10:24:15;8.50;;;5.03;;
9716;SDS011;4897;43.570;27.832;2023-05-19T10:26:43;13.88;;;5.43;;
9716;SDS011;4897;43.570;27.832;2023-05-19T10:29:14;10.48;;;5.90;;
9716;SDS011;4897;43.570;27.832;2023-05-19T10:31:46;10.15;;;5.30;;
9716;SDS011;4897;43.570;27.832;2023-05-19T10:34:22;14.93;;;5.82;;
9716;SDS011;4897;43.570;27.832;2023-05-19T10:37:07;9.35;;;5.32;;
9716;SDS011;4897;43.570;27.832;2023-05-19T10:39:41;8.50;;;5.10;;
9716;SDS011;4897;43.570;27.832;2023-05-19T10:42:11;11.80;;;6.20;;
9716;SDS011;4897;43.570;27.832;2023-05-19T10:44:45;9.63;;;5.68;;
9716;SDS011;4897;43.570;27.832;2023-05-19T10:47:22;14.27;;;5.85;;
9716;SDS011;4897;43.570;27.832;2023-05-19T10:49:52;7.40;;;5.22;;
9716;SDS011;4897;43.570;27.832;2023-05-19T10:52:20;12.88;;;5.30;;
9716;SDS011;4897;43.570;27.832;2023-05-19T10:54:50;12.45;;;5.70;;
9716;SDS011;4897;43.570;27.832;2023-05-19T10:57:18;7.30;;;5.47;;
9716;SDS011;4897;43.570;27.832;2023-05-19T10:59:50;7.50;;;4.95;;
9716;SDS011;4897;43.570;27.832;2023-05-19T11:02:36;7.13;;;4.93;;
9716;SDS011;4897;43.570;27.832;2023-05-19T11:05:10;7.95;;;5.05;;
9716;SDS011;4897;43.570;27.832;2023-05-19T11:07:39;11.93;;;5.43;;
9716;SDS011;4897;43.570;27.832;2023-05-19T11:10:08;18.42;;;5.28;;
9716;SDS011;4897;43.570;27.832;2023-05-19T11:12:39;12.25;;;4.90;;
9716;SDS011;4897;43.570;27.832;2023-05-19T11:15:09;11.32;;;5.03;;
9716;SDS011;4897;43.570;27.832;2023-05-19T11:17:38;12.30;;;4.47;;
9716;SDS011;4897;43.570;27.832;2023-05-19T11:20:06;11.00;;;5.35;;
9716;SDS011;4897;43.570;27.832;2023-05-19T11:22:36;12.15;;;5.13;;
9716;SDS011;4897;43.570;27.832;2023-05-19T11:25:03;14.93;;;5.20;;
9716;SDS011;4897;43.570;27.832;2023-05-19T11:27:32;19.83;;;5.85;;
9716;SDS011;4897;43.570;27.832;2023-05-19T11:30:07;9.38;;;5.10;;
9716;SDS011;4897;43.570;27.832;2023-05-19T11:32:40;10.15;;;4.70;;
9716;SDS011;4897;43.570;27.832;2023-05-19T11:35:08;12.00;;;5.30;;
9716;SDS011;4897;43.570;27.832;2023-05-19T11:37:37;14.43;;;5.65;;
9716;SDS011;4897;43.570;27.832;2023-05-19T11:40:05;6.13;;;4.90;;
9716;SDS011;4897;43.570;27.832;2023-05-19T11:42:33;7.95;;;4.78;;
9716;SDS011;4897;43.570;27.832;2023-05-19T11:45:01;12.23;;;5.20;;
9716;SDS011;4897;43.570;27.832;2023-05-19T11:47:29;22.35;;;5.35;;
9716;SDS011;4897;43.570;27.832;2023-05-19T11:49:58;10.25;;;4.93;;
9716;SDS011;4897;43.570;27.832;2023-05-19T11:52:25;16.02;;;5.07;;
9716;SDS011;4897;43.570;27.832;2023-05-19T11:54:54;15.55;;;4.93;;
9716;SDS011;4897;43.570;27.832;2023-05-19T11:57:21;9.98;;;4.78;;
9716;SDS011;4897;43.570;27.832;2023-05-19T11:59:51;9.48;;;4.70;;
9716;SDS011;4897;43.570;27.832;2023-05-19T12:02:21;8.40;;;4.50;;
9716;SDS011;4897;43.570;27.832;2023-05-19T12:04:49;8.55;;;4.75;;
9716;SDS011;4897;43.570;27.832;2023-05-19T12:07:17;9.70;;;4.82;;
9716;SDS011;4897;43.570;27.832;2023-05-19T12:09:48;10.93;;;4.72;;
9716;SDS011;4897;43.570;27.832;2023-05-19T12:12:17;12.10;;;4.70;;
9716;SDS011;4897;43.570;27.832;2023-05-19T12:14:46;10.60;;;4.80;;
9716;SDS011;4897;43.570;27.832;2023-05-19T12:17:15;7.50;;;4.03;;
9716;SDS011;4897;43.570;27.832;2023-05-19T12:19:44;12.98;;;4.53;;
9716;SDS011;4897;43.570;27.832;2023-05-19T12:22:14;7.32;;;4.22;;
9716;SDS011;4897;43.570;27.832;2023-05-19T12:24:42;7.00;;;4.53;;
9716;SDS011;4897;43.570;27.832;2023-05-19T12:27:16;9.55;;;5.40;;
9716;SDS011;4897;43.570;27.832;2023-05-19T12:29:50;8.63;;;4.65;;
9716;SDS011;4897;43.570;27.832;2023-05-19T12:32:18;6.50;;;4.32;;
9716;SDS011;4897;43.570;27.832;2023-05-19T12:34:49;14.70;;;4.65;;
9716;SDS011;4897;43.570;27.832;2023-05-19T12:37:16;7.55;;;4.68;;
9716;SDS011;4897;43.570;27.832;2023-05-19T12:39:43;4.53;;;4.07;;
9716;SDS011;4897;43.570;27.832;2023-05-19T12:42:11;6.50;;;4.60;;
9716;SDS011;4897;43.570;27.832;2023-05-19T12:44:41;6.55;;;4.38;;
9716;SDS011;4897;43.570;27.832;2023-05-19T12:47:10;5.68;;;4.40;;
9716;SDS011;4897;43.570;27.832;2023-05-19T12:49:52;6.65;;;4.30;;
9716;SDS011;4897;43.570;27.832;2023-05-19T12:52:19;7.57;;;4.05;;
9716;SDS011;4897;43.570;27.832;2023-05-19T12:54:48;6.68;;;4.97;;
9716;SDS011;4897;43.570;27.832;2023-05-19T12:57:17;7.57;;;4.60;;
9716;SDS011;4897;43.570;27.832;2023-05-19T12:59:48;8.23;;;4.60;;
9716;SDS011;4897;43.570;27.832;2023-05-19T13:02:15;9.75;;;5.25;;
9716;SDS011;4897;43.570;27.832;2023-05-19T13:04:42;10.23;;;4.70;;
9716;SDS011;4897;43.570;27.832;2023-05-19T13:07:09;9.30;;;4.07;;
9716;SDS011;4897;43.570;27.832;2023-05-19T13:09:37;9.57;;;4.38;;
9716;SDS011;4897;43.570;27.832;2023-05-19T13:12:04;19.50;;;4.93;;
9716;SDS011;4897;43.570;27.832;2023-05-19T13:14:32;6.70;;;4.80;;
9716;SDS011;4897;43.570;27.832;2023-05-19T13:17:00;11.95;;;4.95;;
9716;SDS011;4897;43.570;27.832;2023-05-19T13:19:27;5.30;;;4.10;;
9716;SDS011;4897;43.570;27.832;2023-05-19T13:21:54;8.13;;;4.45;;
9716;SDS011;4897;43.570;27.832;2023-05-19T13:24:24;5.65;;;4.68;;
9716;SDS011;4897;43.570;27.832;2023-05-19T13:26:51;10.05;;;5.00;;
9716;SDS011;4897;43.570;27.832;2023-05-19T13:29:18;5.72;;;4.53;;
9716;SDS011;4897;43.570;27.832;2023-05-19T13:31:45;17.20;;;5.20;;
9716;SDS011;4897;43.570;27.832;2023-05-19T13:34:13;8.48;;;4.60;;
9716;SDS011;4897;43.570;27.832;2023-05-19T13:36:41;6.90;;;4.53;;
9716;SDS011;4897;43.570;27.832;2023-05-19T13:39:12;8.18;;;4.80;;
9716;SDS011;4897;43.570;27.832;2023-05-19T13:41:38;10.95;;;4.60;;
9716;SDS011;4897;43.570;27.832;2023-05-19T13:44:05;8.52;;;4.60;;
9716;SDS011;4897;43.570;27.832;2023-05-19T13:46:32;6.65;;;4.45;;
9716;SDS011;4897;43.570;27.832;2023-05-19T13:48:59;7.25;;;5.20;;
9716;SDS011;4897;43.570;27.832;2023-05-19T13:51:27;6.22;;;4.65;;
9716;SDS011;4897;43.570;27.832;2023-05-19T13:53:54;11.95;;;4.65;;
9716;SDS011;4897;43.570;27.832;2023-05-19T13:56:21;9.18;;;4.90;;
9716;SDS011;4897;43.570;27.832;2023-05-19T13:58:48;9.45;;;5.03;;
9716;SDS011;4897;43.570;27.832;2023-05-19T14:01:15;9.00;;;4.40;;
9716;SDS011;4897;43.570;27.832;2023-05-19T14:03:42;7.03;;;4.22;;
9716;SDS011;4897;43.570;27.832;2023-05-19T14:06:09;8.48;;;4.63;;
9716;SDS011;4897;43.570;27.832;2023-05-19T14:08:37;8.63;;;4.72;;
9716;SDS011;4897;43.570;27.832;2023-05-19T14:11:05;7.32;;;4.80;;
9716;SDS011;4897;43.570;27.832;2023-05-19T14:13:32;6.13;;;4.63;;
9716;SDS011;4897;43.570;27.832;2023-05-19T14:15:59;11.63;;;4.90;;
9716;SDS011;4897;43.570;27.832;2023-05-19T14:18:26;9.23;;;4.72;;
9716;SDS011;4897;43.570;27.832;2023-05-19T14:20:59;7.35;;;5.22;;
9716;SDS011;4897;43.570;27.832;2023-05-19T14:23:26;6.50;;;4.63;;
9716;SDS011;4897;43.570;27.832;2023-05-19T14:25:55;5.88;;;4.50;;
9716;SDS011;4897;43.570;27.832;2023-05-19T14:28:22;10.60;;;4.75;;
9716;SDS011;4897;43.570;27.832;2023-05-19T14:30:49;7.82;;;4.85;;
9716;SDS011;4897;43.570;27.832;2023-05-19T14:33:16;6.63;;;4.53;;
9716;SDS011;4897;43.570;27.832;2023-05-19T14:35:44;10.45;;;5.22;;
9716;SDS011;4897;43.570;27.832;2023-05-19T14:38:11;8.10;;;5.07;;
9716;SDS011;4897;43.570;27.832;2023-05-19T14:40:38;8.98;;;4.18;;
9716;SDS011;4897;43.570;27.832;2023-05-19T14:43:07;7.30;;;4.88;;
9716;SDS011;4897;43.570;27.832;2023-05-19T14:45:34;7.45;;;4.30;;
9716;SDS011;4897;43.570;27.832;2023-05-19T14:48:01;10.35;;;4.72;;
9716;SDS011;4897;43.570;27.832;2023-05-19T14:50:27;9.63;;;4.57;;
9716;SDS011;4897;43.570;27.832;2023-05-19T14:52:55;8.55;;;4.80;;
9716;SDS011;4897;43.570;27.832;2023-05-19T14:55:22;7.90;;;4.63;;
9716;SDS011;4897;43.570;27.832;2023-05-19T14:57:49;11.15;;;5.07;;
9716;SDS011;4897;43.570;27.832;2023-05-19T15:00:17;8.60;;;4.95;;